sensor_id;sensor_type;location;lat;lon;timestamp;pressure;altitude;pressure_sealevel;temperature;humidity
37312;BME280;23197;53.912;9.138;2022-12-05T00:00:31;102045.41;;;9.43;69.11
37312;BME280;23197;53.912;9.138;2022-12-05T00:02:57;102043.72;;;9.42;69.02
37312;BME280;23197;53.912;9.138;2022-12-05T00:05:22;102042.03;;;9.41;69.23
37312;BME280;23197;53.912;9.138;2022-12-05T00:07:48;102044.63;;;9.41;69.36
37312;BME280;23197;53.912;9.138;2022-12-05T00:10:14;102033.28;;;9.42;69.17
37312;BME280;23197;53.912;9.138;2022-12-05T00:12:40;102041.19;;;9.40;69.26
37312;BME280;23197;53.912;9.138;2022-12-05T00:15:06;102032.50;;;9.40;69.60
37312;BME280;23197;53.912;9.138;2022-12-05T00:17:33;102033.38;;;9.39;69.19
37312;BME280;23197;53.912;9.138;2022-12-05T00:19:59;102028.16;;;9.39;69.25
37312;BME280;23197;53.912;9.138;2022-12-05T00:22:24;102032.63;;;9.37;69.36
37312;BME280;23197;53.912;9.138;2022-12-05T00:24:51;102032.63;;;9.37;69.42
37312;BME280;23197;53.912;9.138;2022-12-05T00:27:17;102024.78;;;9.37;69.31
37312;BME280;23197;53.912;9.138;2022-12-05T00:29:43;102033.53;;;9.36;69.58
37312;BME280;23197;53.912;9.138;2022-12-05T00:32:08;102031.00;;;9.34;69.36
37312;BME280;23197;53.912;9.138;2022-12-05T00:34:34;102028.44;;;9.33;69.54
37312;BME280;23197;53.912;9.138;2022-12-05T00:36:59;102023.22;;;9.33;69.58
37312;BME280;23197;53.912;9.138;2022-12-05T00:39:25;102030.25;;;9.31;69.84
37312;BME280;23197;53.912;9.138;2022-12-05T00:41:50;102028.56;;;9.30;69.46
37312;BME280;23197;53.912;9.138;2022-12-05T00:44:16;102028.56;;;9.30;69.50
37312;BME280;23197;53.912;9.138;2022-12-05T00:46:41;102034.63;;;9.30;69.68
37312;BME280;23197;53.912;9.138;2022-12-05T00:49:07;102031.22;;;9.28;69.81
37312;BME280;23197;53.912;9.138;2022-12-05T00:51:38;102024.34;;;9.25;69.66
37312;BME280;23197;53.912;9.138;2022-12-05T00:54:10;102021.75;;;9.25;69.71
37312;BME280;23197;53.912;9.138;2022-12-05T00:56:36;102027.84;;;9.26;70.00
37312;BME280;23197;53.912;9.138;2022-12-05T00:59:03;102027.09;;;9.22;69.75
37312;BME280;23197;53.912;9.138;2022-12-05T01:01:32;102024.56;;;9.21;70.12
37312;BME280;23197;53.912;9.138;2022-12-05T01:04:02;102014.22;;;9.18;70.04
37312;BME280;23197;53.912;9.138;2022-12-05T01:06:28;102015.91;;;9.19;70.05
37312;BME280;23197;53.912;9.138;2022-12-05T01:08:54;102011.69;;;9.16;70.18
37312;BME280;23197;53.912;9.138;2022-12-05T01:11:21;102022.13;;;9.16;70.27
37312;BME280;23197;53.912;9.138;2022-12-05T01:13:48;102019.41;;;9.19;70.19
37312;BME280;23197;53.912;9.138;2022-12-05T01:18:49;102023.72;;;9.20;70.08
37312;BME280;23197;53.912;9.138;2022-12-05T01:21:15;102018.59;;;9.17;70.32
37312;BME280;23197;53.912;9.138;2022-12-05T01:23:41;102021.13;;;9.19;70.01
37312;BME280;23197;53.912;9.138;2022-12-05T01:26:09;102020.41;;;9.15;69.97
37312;BME280;23197;53.912;9.138;2022-12-05T01:28:35;102021.19;;;9.17;70.02
37312;BME280;23197;53.912;9.138;2022-12-05T01:31:06;102022.13;;;9.16;70.03
37312;BME280;23197;53.912;9.138;2022-12-05T01:33:33;102016.91;;;9.16;70.14
37312;BME280;23197;53.912;9.138;2022-12-05T01:35:59;102020.28;;;9.18;70.11
37312;BME280;23197;53.912;9.138;2022-12-05T01:38:25;102008.16;;;9.17;70.22
37312;BME280;23197;53.912;9.138;2022-12-05T01:40:59;102015.97;;;9.17;70.21
37312;BME280;23197;53.912;9.138;2022-12-05T01:43:25;102018.50;;;9.20;70.43
37312;BME280;23197;53.912;9.138;2022-12-05T01:45:50;102010.59;;;9.22;70.53
37312;BME280;23197;53.912;9.138;2022-12-05T01:48:19;102006.22;;;9.22;70.48
37312;BME280;23197;53.912;9.138;2022-12-05T01:50:46;102009.75;;;9.21;70.49
37312;BME280;23197;53.912;9.138;2022-12-05T01:53:13;102011.38;;;9.24;70.49
37312;BME280;23197;53.912;9.138;2022-12-05T01:55:39;102008.78;;;9.24;70.05
37312;BME280;23197;53.912;9.138;2022-12-05T01:58:07;102004.41;;;9.24;70.16
37312;BME280;23197;53.912;9.138;2022-12-05T02:00:34;102003.47;;;9.25;70.31
37312;BME280;23197;53.912;9.138;2022-12-05T02:03:04;102006.22;;;9.22;70.39
37312;BME280;23197;53.912;9.138;2022-12-05T02:05:32;101999.31;;;9.21;70.22
37312;BME280;23197;53.912;9.138;2022-12-05T02:08:05;101996.63;;;9.23;70.47
37312;BME280;23197;53.912;9.138;2022-12-05T02:10:34;102001.06;;;9.21;70.25
37312;BME280;23197;53.912;9.138;2022-12-05T02:13:30;102003.63;;;9.22;70.36
37312;BME280;23197;53.912;9.138;2022-12-05T02:16:20;101995.72;;;9.24;70.23
37312;BME280;23197;53.912;9.138;2022-12-05T02:18:51;101999.19;;;9.24;70.12
37312;BME280;23197;53.912;9.138;2022-12-05T02:21:51;101991.31;;;9.26;70.14
37312;BME280;23197;53.912;9.138;2022-12-05T02:32:46;101983.53;;;9.24;70.27
37312;BME280;23197;53.912;9.138;2022-12-05T02:40:38;101991.41;;;9.23;70.21
37312;BME280;23197;53.912;9.138;2022-12-05T02:43:13;101986.94;;;9.27;69.97
37312;BME280;23197;53.912;9.138;2022-12-05T02:45:41;101990.44;;;9.25;70.24
37312;BME280;23197;53.912;9.138;2022-12-05T02:48:11;101986.09;;;9.26;69.96
37312;BME280;23197;53.912;9.138;2022-12-05T02:50:40;101988.72;;;9.26;69.81
37312;BME280;23197;53.912;9.138;2022-12-05T02:53:10;101991.97;;;9.31;69.95
37312;BME280;23197;53.912;9.138;2022-12-05T02:55:37;101986.69;;;9.33;69.98
37312;BME280;23197;53.912;9.138;2022-12-05T02:58:08;101986.69;;;9.33;69.72
37312;BME280;23197;53.912;9.138;2022-12-05T03:00:38;101982.34;;;9.33;69.88
37312;BME280;23197;53.912;9.138;2022-12-05T03:03:13;101974.53;;;9.32;69.94
37312;BME280;23197;53.912;9.138;2022-12-05T03:05:49;101979.75;;;9.32;69.89
37312;BME280;23197;53.912;9.138;2022-12-05T03:08:20;101973.66;;;9.33;69.68
37312;BME280;23197;53.912;9.138;2022-12-05T03:10:48;101968.44;;;9.33;69.86
37312;BME280;23197;53.912;9.138;2022-12-05T03:13:24;101980.50;;;9.35;69.62
37312;BME280;23197;53.912;9.138;2022-12-05T03:15:55;101963.88;;;9.38;69.67
37312;BME280;23197;53.912;9.138;2022-12-05T03:18:38;101983.13;;;9.35;69.91
37312;BME280;23197;53.912;9.138;2022-12-05T03:21:24;101974.31;;;9.38;69.83
37312;BME280;23197;53.912;9.138;2022-12-05T03:23:59;101977.81;;;9.37;69.67
37312;BME280;23197;53.912;9.138;2022-12-05T03:37:37;101971.16;;;9.30;69.81
37312;BME280;23197;53.912;9.138;2022-12-05T03:43:28;101969.56;;;9.25;69.58
37312;BME280;23197;53.912;9.138;2022-12-05T03:46:03;101968.72;;;9.25;69.64
37312;BME280;23197;53.912;9.138;2022-12-05T03:48:34;101960.00;;;9.26;69.73
37312;BME280;23197;53.912;9.138;2022-12-05T03:51:04;101969.47;;;9.29;69.57
37312;BME280;23197;53.912;9.138;2022-12-05T03:53:37;101969.47;;;9.29;69.70
37312;BME280;23197;53.912;9.138;2022-12-05T03:56:16;101962.66;;;9.24;69.35
37312;BME280;23197;53.912;9.138;2022-12-05T03:58:55;101964.50;;;9.22;69.59
37312;BME280;23197;53.912;9.138;2022-12-05T04:01:22;101973.06;;;9.26;69.85
37312;BME280;23197;53.912;9.138;2022-12-05T04:03:53;101969.47;;;9.29;69.53
37312;BME280;23197;53.912;9.138;2022-12-05T04:06:28;101973.00;;;9.28;69.78
37312;BME280;23197;53.912;9.138;2022-12-05T04:11:32;101967.69;;;9.29;69.37
37312;BME280;23197;53.912;9.138;2022-12-05T04:14:06;101966.94;;;9.27;69.54
37312;BME280;23197;53.912;9.138;2022-12-05T04:16:44;101963.47;;;9.27;69.32
37312;BME280;23197;53.912;9.138;2022-12-05T04:19:56;101960.19;;;9.21;69.64
37312;BME280;23197;53.912;9.138;2022-12-05T04:22:43;101965.47;;;9.20;69.43
37312;BME280;23197;53.912;9.138;2022-12-05T04:25:12;101962.19;;;9.15;69.45
37312;BME280;23197;53.912;9.138;2022-12-05T04:30:48;101964.91;;;9.12;69.62
37312;BME280;23197;53.912;9.138;2022-12-05T04:38:42;101958.06;;;9.09;69.81
37312;BME280;23197;53.912;9.138;2022-12-05T04:41:15;101959.91;;;9.07;70.07
37312;BME280;23197;53.912;9.138;2022-12-05T04:43:44;101956.47;;;9.05;69.97
37312;BME280;23197;53.912;9.138;2022-12-05T04:46:13;101965.22;;;9.04;69.62
37312;BME280;23197;53.912;9.138;2022-12-05T04:48:43;101953.88;;;9.05;69.87
37312;BME280;23197;53.912;9.138;2022-12-05T04:51:19;101966.91;;;9.05;69.65
37312;BME280;23197;53.912;9.138;2022-12-05T04:53:51;101970.38;;;9.06;69.97
37312;BME280;23197;53.912;9.138;2022-12-05T04:56:19;101965.16;;;9.06;69.97
37312;BME280;23197;53.912;9.138;2022-12-05T04:58:46;101964.31;;;9.05;69.83
37312;BME280;23197;53.912;9.138;2022-12-05T05:01:29;101966.97;;;9.04;69.71
37312;BME280;23197;53.912;9.138;2022-12-05T05:04:11;101965.34;;;9.01;69.73
37312;BME280;23197;53.912;9.138;2022-12-05T05:06:40;101967.97;;;9.01;69.99
37312;BME280;23197;53.912;9.138;2022-12-05T05:09:06;101974.09;;;9.00;69.81
37312;BME280;23197;53.912;9.138;2022-12-05T05:11:33;101967.16;;;8.99;69.94
37312;BME280;23197;53.912;9.138;2022-12-05T05:13:59;101970.66;;;8.98;70.13
37312;BME280;23197;53.912;9.138;2022-12-05T05:16:28;101948.97;;;8.97;69.84
37312;BME280;23197;53.912;9.138;2022-12-05T05:18:54;101973.28;;;8.98;69.85
37312;BME280;23197;53.912;9.138;2022-12-05T05:21:24;101969.88;;;8.96;70.38
37312;BME280;23197;53.912;9.138;2022-12-05T05:23:49;101969.97;;;8.94;69.88
37312;BME280;23197;53.912;9.138;2022-12-05T05:26:15;101972.59;;;8.93;70.34
37312;BME280;23197;53.912;9.138;2022-12-05T05:28:41;101974.44;;;8.91;70.10
37312;BME280;23197;53.912;9.138;2022-12-05T05:31:07;101965.69;;;8.92;70.23
37312;BME280;23197;53.912;9.138;2022-12-05T05:33:33;101972.66;;;8.91;70.21
37312;BME280;23197;53.912;9.138;2022-12-05T05:36:06;101973.50;;;8.92;70.16
37312;BME280;23197;53.912;9.138;2022-12-05T05:38:46;101972.59;;;8.93;70.10
37312;BME280;23197;53.912;9.138;2022-12-05T05:41:24;101970.00;;;8.93;69.93
37312;BME280;23197;53.912;9.138;2022-12-05T05:43:50;101972.50;;;8.96;70.18
37312;BME280;23197;53.912;9.138;2022-12-05T05:46:18;101974.31;;;8.94;70.16
37312;BME280;23197;53.912;9.138;2022-12-05T05:48:44;101964.75;;;8.94;70.26
37312;BME280;23197;53.912;9.138;2022-12-05T05:51:11;101966.50;;;8.94;69.97
37312;BME280;23197;53.912;9.138;2022-12-05T05:53:37;101973.41;;;8.95;69.93
37312;BME280;23197;53.912;9.138;2022-12-05T05:56:07;101966.53;;;8.92;70.09
37312;BME280;23197;53.912;9.138;2022-12-05T05:58:33;101976.94;;;8.94;70.18
37312;BME280;23197;53.912;9.138;2022-12-05T06:01:18;101965.69;;;8.92;69.76
37312;BME280;23197;53.912;9.138;2022-12-05T06:03:47;101970.06;;;8.91;70.01
37312;BME280;23197;53.912;9.138;2022-12-05T06:06:14;101964.06;;;8.89;69.93
37312;BME280;23197;53.912;9.138;2022-12-05T06:08:42;101971.94;;;8.88;69.89
37312;BME280;23197;53.912;9.138;2022-12-05T06:11:10;101978.19;;;8.84;70.28
37312;BME280;23197;53.912;9.138;2022-12-05T06:13:36;101982.53;;;8.83;70.33
37312;BME280;23197;53.912;9.138;2022-12-05T06:16:08;101985.16;;;8.83;70.15
37312;BME280;23197;53.912;9.138;2022-12-05T06:18:34;101970.44;;;8.82;70.19
37312;BME280;23197;53.912;9.138;2022-12-05T06:20:59;101983.28;;;8.87;70.12
37312;BME280;23197;53.912;9.138;2022-12-05T06:23:25;101974.56;;;8.88;70.32
37312;BME280;23197;53.912;9.138;2022-12-05T06:25:53;101980.63;;;8.88;70.35
37312;BME280;23197;53.912;9.138;2022-12-05T06:28:20;101970.34;;;8.84;70.07
37312;BME280;23197;53.912;9.138;2022-12-05T06:30:46;101972.97;;;8.84;69.88
37312;BME280;23197;53.912;9.138;2022-12-05T06:33:11;101975.63;;;8.82;70.40
37312;BME280;23197;53.912;9.138;2022-12-05T06:35:37;101970.50;;;8.81;70.35
37312;BME280;23197;53.912;9.138;2022-12-05T06:38:03;101962.78;;;8.78;70.15
37312;BME280;23197;53.912;9.138;2022-12-05T06:40:29;101962.78;;;8.78;70.31
37312;BME280;23197;53.912;9.138;2022-12-05T06:42:54;101969.81;;;8.76;70.46
37312;BME280;23197;53.912;9.138;2022-12-05T06:45:20;101961.06;;;8.77;70.28
37312;BME280;23197;53.912;9.138;2022-12-05T06:47:46;101955.94;;;8.75;70.41
37312;BME280;23197;53.912;9.138;2022-12-05T06:50:11;101955.94;;;8.75;70.58
37312;BME280;23197;53.912;9.138;2022-12-05T06:52:37;101955.09;;;8.75;70.45
37312;BME280;23197;53.912;9.138;2022-12-05T06:55:03;101960.28;;;8.75;70.25
37312;BME280;23197;53.912;9.138;2022-12-05T06:57:28;101960.09;;;8.79;70.58
37312;BME280;23197;53.912;9.138;2022-12-05T06:59:54;101946.34;;;8.76;70.54
37312;BME280;23197;53.912;9.138;2022-12-05T07:02:38;101957.00;;;8.69;70.65
37312;BME280;23197;53.912;9.138;2022-12-05T07:05:07;101959.38;;;8.76;70.23
37312;BME280;23197;53.912;9.138;2022-12-05T07:07:32;101960.94;;;8.80;70.23
37312;BME280;23197;53.912;9.138;2022-12-05T07:09:58;101966.16;;;8.80;70.22
37312;BME280;23197;53.912;9.138;2022-12-05T07:12:23;101960.06;;;8.81;70.31
37312;BME280;23197;53.912;9.138;2022-12-05T07:14:49;101954.84;;;8.81;70.46
37312;BME280;23197;53.912;9.138;2022-12-05T07:17:18;101966.84;;;8.85;70.00
37312;BME280;23197;53.912;9.138;2022-12-05T07:19:46;101963.31;;;8.86;70.26
37312;BME280;23197;53.912;9.138;2022-12-05T07:22:12;101961.63;;;8.85;70.12
37312;BME280;23197;53.912;9.138;2022-12-05T07:24:38;101968.59;;;8.84;70.04
37312;BME280;23197;53.912;9.138;2022-12-05T07:27:03;101966.06;;;8.83;70.25
37312;BME280;23197;53.912;9.138;2022-12-05T07:29:28;101972.88;;;8.87;70.47
37312;BME280;23197;53.912;9.138;2022-12-05T07:31:54;101962.38;;;8.88;70.35
37312;BME280;23197;53.912;9.138;2022-12-05T07:34:19;101969.22;;;8.91;70.35
37312;BME280;23197;53.912;9.138;2022-12-05T07:36:45;101967.53;;;8.90;70.19
37312;BME280;23197;53.912;9.138;2022-12-05T07:39:10;101970.91;;;8.92;70.16
37312;BME280;23197;53.912;9.138;2022-12-05T07:41:36;101962.97;;;8.95;70.31
37312;BME280;23197;53.912;9.138;2022-12-05T07:44:05;101968.13;;;8.96;70.33
37312;BME280;23197;53.912;9.138;2022-12-05T07:46:32;101960.31;;;8.96;70.29
37312;BME280;23197;53.912;9.138;2022-12-05T07:48:57;101955.16;;;8.95;70.41
37312;BME280;23197;53.912;9.138;2022-12-05T07:51:23;101960.38;;;8.95;70.12
37312;BME280;23197;53.912;9.138;2022-12-05T07:53:48;101961.16;;;8.97;70.55
37312;BME280;23197;53.912;9.138;2022-12-05T07:56:15;101958.53;;;8.97;70.26
37312;BME280;23197;53.912;9.138;2022-12-05T07:58:45;101960.25;;;8.98;70.36
37312;BME280;23197;53.912;9.138;2022-12-05T08:01:13;101955.84;;;9.00;70.24
37312;BME280;23197;53.912;9.138;2022-12-05T08:03:39;101954.91;;;9.01;70.11
37312;BME280;23197;53.912;9.138;2022-12-05T08:06:07;101950.47;;;9.03;70.28
37312;BME280;23197;53.912;9.138;2022-12-05T08:08:33;101954.69;;;9.07;70.04
37312;BME280;23197;53.912;9.138;2022-12-05T08:11:19;101948.72;;;9.04;70.05
37312;BME280;23197;53.912;9.138;2022-12-05T08:13:45;101964.31;;;9.05;70.15
37312;BME280;23197;53.912;9.138;2022-12-05T08:16:13;101947.88;;;9.03;69.93
37312;BME280;23197;53.912;9.138;2022-12-05T08:18:40;101953.84;;;9.07;70.04
37312;BME280;23197;53.912;9.138;2022-12-05T08:21:10;101953.88;;;9.05;69.91
37312;BME280;23197;53.912;9.138;2022-12-05T08:23:37;101949.56;;;9.04;69.78
37312;BME280;23197;53.912;9.138;2022-12-05T08:26:06;101959.22;;;9.02;70.23
37312;BME280;23197;53.912;9.138;2022-12-05T08:28:32;101958.31;;;9.03;69.77
37312;BME280;23197;53.912;9.138;2022-12-05T08:31:10;101958.38;;;9.02;70.26
37312;BME280;23197;53.912;9.138;2022-12-05T08:33:36;101953.09;;;9.03;70.07
37312;BME280;23197;53.912;9.138;2022-12-05T08:36:07;101949.72;;;9.01;70.09
37312;BME280;23197;53.912;9.138;2022-12-05T08:38:33;101963.66;;;9.00;69.91
37312;BME280;23197;53.912;9.138;2022-12-05T08:41:00;101954.00;;;9.02;70.03
37312;BME280;23197;53.912;9.138;2022-12-05T08:43:27;101961.84;;;9.02;70.31
37312;BME280;23197;53.912;9.138;2022-12-05T08:45:53;101968.75;;;9.03;70.10
37312;BME280;23197;53.912;9.138;2022-12-05T08:48:18;101958.25;;;9.05;70.31
37312;BME280;23197;53.912;9.138;2022-12-05T08:50:44;101966.88;;;9.07;70.22
37312;BME280;23197;53.912;9.138;2022-12-05T08:53:10;101970.31;;;9.07;70.17
37312;BME280;23197;53.912;9.138;2022-12-05T08:55:35;101966.91;;;9.05;70.15
37312;BME280;23197;53.912;9.138;2022-12-05T08:58:01;101954.72;;;9.06;69.90
37312;BME280;23197;53.912;9.138;2022-12-05T09:00:27;101949.47;;;9.07;69.89
37312;BME280;23197;53.912;9.138;2022-12-05T09:02:52;101945.94;;;9.08;70.19
37312;BME280;23197;53.912;9.138;2022-12-05T09:05:18;101951.09;;;9.10;70.29
37312;BME280;23197;53.912;9.138;2022-12-05T09:07:44;101956.38;;;9.08;69.93
37312;BME280;23197;53.912;9.138;2022-12-05T09:10:09;101964.97;;;9.10;69.88
37312;BME280;23197;53.912;9.138;2022-12-05T09:12:38;101958.13;;;9.08;70.08
37312;BME280;23197;53.912;9.138;2022-12-05T09:15:09;101952.84;;;9.09;70.22
37312;BME280;23197;53.912;9.138;2022-12-05T09:17:35;101961.47;;;9.11;70.14
37312;BME280;23197;53.912;9.138;2022-12-05T09:20:02;101961.47;;;9.11;70.06
37312;BME280;23197;53.912;9.138;2022-12-05T09:22:27;101957.94;;;9.12;70.13
37312;BME280;23197;53.912;9.138;2022-12-05T09:24:53;101964.75;;;9.16;69.94
37312;BME280;23197;53.912;9.138;2022-12-05T09:27:19;101965.50;;;9.18;70.04
37312;BME280;23197;53.912;9.138;2022-12-05T09:29:44;101957.66;;;9.20;70.25
37312;BME280;23197;53.912;9.138;2022-12-05T09:32:10;101961.09;;;9.20;70.23
37312;BME280;23197;53.912;9.138;2022-12-05T09:34:37;101957.66;;;9.20;69.90
37312;BME280;23197;53.912;9.138;2022-12-05T09:37:03;101962.91;;;9.18;70.23
37312;BME280;23197;53.912;9.138;2022-12-05T09:39:29;101963.81;;;9.17;70.12
37312;BME280;23197;53.912;9.138;2022-12-05T09:52:33;101963.88;;;9.16;70.39
37312;BME280;23197;53.912;9.138;2022-12-05T09:55:08;101962.13;;;9.16;70.27
37312;BME280;23197;53.912;9.138;2022-12-05T09:57:41;101959.41;;;9.19;70.58
37312;BME280;23197;53.912;9.138;2022-12-05T10:00:09;101955.03;;;9.20;70.31
37312;BME280;23197;53.912;9.138;2022-12-05T10:02:51;101961.97;;;9.21;70.61
37312;BME280;23197;53.912;9.138;2022-12-05T10:05:34;101959.28;;;9.22;70.48
37312;BME280;23197;53.912;9.138;2022-12-05T10:08:10;101948.84;;;9.22;70.37
37312;BME280;23197;53.912;9.138;2022-12-05T10:13:44;101957.69;;;9.18;70.32
37312;BME280;23197;53.912;9.138;2022-12-05T10:16:48;101953.59;;;9.13;70.40
37312;BME280;23197;53.912;9.138;2022-12-05T10:19:22;101949.22;;;9.13;70.74
37312;BME280;23197;53.912;9.138;2022-12-05T10:24:36;101953.59;;;9.13;70.93
37312;BME280;23197;53.912;9.138;2022-12-05T10:27:26;101944.84;;;9.14;70.81
37312;BME280;23197;53.912;9.138;2022-12-05T10:30:05;101955.22;;;9.15;70.69
37312;BME280;23197;53.912;9.138;2022-12-05T10:32:51;101953.47;;;9.16;70.56
37312;BME280;23197;53.912;9.138;2022-12-05T10:35:20;101948.97;;;9.19;70.73
37312;BME280;23197;53.912;9.138;2022-12-05T10:37:48;101946.38;;;9.19;70.54
37312;BME280;23197;53.912;9.138;2022-12-05T10:40:16;101949.69;;;9.23;70.85
37312;BME280;23197;53.912;9.138;2022-12-05T10:42:42;101941.78;;;9.24;70.68
37312;BME280;23197;53.912;9.138;2022-12-05T10:45:16;101933.97;;;9.24;70.79
37312;BME280;23197;53.912;9.138;2022-12-05T10:47:42;101932.09;;;9.28;70.60
37312;BME280;23197;53.912;9.138;2022-12-05T10:50:28;101920.88;;;9.26;70.83
37312;BME280;23197;53.912;9.138;2022-12-05T10:52:56;101931.25;;;9.28;70.35
37312;BME280;23197;53.912;9.138;2022-12-05T10:55:29;101936.47;;;9.28;70.78
37312;BME280;23197;53.912;9.138;2022-12-05T10:58:15;101922.63;;;9.25;70.55
37312;BME280;23197;53.912;9.138;2022-12-05T11:00:45;101926.09;;;9.26;70.36
37312;BME280;23197;53.912;9.138;2022-12-05T11:03:32;101921.78;;;9.25;70.73
37312;BME280;23197;53.912;9.138;2022-12-05T11:06:00;101915.59;;;9.28;70.53
37312;BME280;23197;53.912;9.138;2022-12-05T11:08:31;101920.69;;;9.31;70.68
37312;BME280;23197;53.912;9.138;2022-12-05T11:11:03;101925.78;;;9.34;70.44
37312;BME280;23197;53.912;9.138;2022-12-05T11:13:31;101927.47;;;9.35;70.81
37312;BME280;23197;53.912;9.138;2022-12-05T11:15:57;101925.66;;;9.37;70.71
37312;BME280;23197;53.912;9.138;2022-12-05T11:18:28;101923.81;;;9.39;70.55
37312;BME280;23197;53.912;9.138;2022-12-05T11:20:55;101917.63;;;9.41;70.75
37312;BME280;23197;53.912;9.138;2022-12-05T11:23:27;101916.66;;;9.44;70.48
37312;BME280;23197;53.912;9.138;2022-12-05T11:25:54;101903.59;;;9.44;70.33
37312;BME280;23197;53.912;9.138;2022-12-05T11:33:24;101909.47;;;9.49;70.38
37312;BME280;23197;53.912;9.138;2022-12-05T11:35:54;101904.16;;;9.52;70.36
37312;BME280;23197;53.912;9.138;2022-12-05T11:38:26;101904.16;;;9.52;70.17
37312;BME280;23197;53.912;9.138;2022-12-05T11:49:49;101899.63;;;9.56;70.63
37312;BME280;23197;53.912;9.138;2022-12-05T11:55:19;101891.72;;;9.57;70.02
37312;BME280;23197;53.912;9.138;2022-12-05T12:08:37;101884.31;;;9.68;69.91
37312;BME280;23197;53.912;9.138;2022-12-05T12:11:30;101886.75;;;9.71;69.68
37312;BME280;23197;53.912;9.138;2022-12-05T12:33:55;101864.88;;;9.55;70.23
37312;BME280;23197;53.912;9.138;2022-12-05T12:36:37;101871.00;;;9.54;70.28
37312;BME280;23197;53.912;9.138;2022-12-05T12:50:20;101876.06;;;9.57;69.79
37312;BME280;23197;53.912;9.138;2022-12-05T12:55:58;101871.84;;;9.55;69.74
37312;BME280;23197;53.912;9.138;2022-12-05T13:01:36;101873.53;;;9.56;70.05
37312;BME280;23197;53.912;9.138;2022-12-05T13:04:08;101869.16;;;9.56;69.74
37312;BME280;23197;53.912;9.138;2022-12-05T13:06:47;101865.72;;;9.56;69.56
37312;BME280;23197;53.912;9.138;2022-12-05T13:11:46;101869.91;;;9.60;69.61
37312;BME280;23197;53.912;9.138;2022-12-05T13:14:17;101866.44;;;9.59;69.56
37312;BME280;23197;53.912;9.138;2022-12-05T13:16:47;101870.09;;;9.55;69.38
37312;BME280;23197;53.912;9.138;2022-12-05T13:19:41;101867.72;;;9.49;69.49
37312;BME280;23197;53.912;9.138;2022-12-05T13:22:08;101864.22;;;9.50;69.37
37312;BME280;23197;53.912;9.138;2022-12-05T13:24:35;101860.81;;;9.48;69.69
37312;BME280;23197;53.912;9.138;2022-12-05T13:27:05;101862.78;;;9.43;69.60
37312;BME280;23197;53.912;9.138;2022-12-05T13:29:34;101853.25;;;9.42;69.91
37312;BME280;23197;53.912;9.138;2022-12-05T13:32:02;101867.16;;;9.42;69.47
37312;BME280;23197;53.912;9.138;2022-12-05T13:36:56;101865.47;;;9.41;69.78
37312;BME280;23197;53.912;9.138;2022-12-05T13:39:40;101862.13;;;9.38;69.60
37312;BME280;23197;53.912;9.138;2022-12-05T13:42:28;101854.53;;;9.32;69.56
37312;BME280;23197;53.912;9.138;2022-12-05T13:45:06;101864.28;;;9.28;69.91
37312;BME280;23197;53.912;9.138;2022-12-05T13:50:13;101856.53;;;9.27;70.11
37312;BME280;23197;53.912;9.138;2022-12-05T13:53:02;101858.22;;;9.28;70.04
37312;BME280;23197;53.912;9.138;2022-12-05T13:55:33;101866.03;;;9.28;69.82
37312;BME280;23197;53.912;9.138;2022-12-05T13:58:01;101856.53;;;9.27;69.43
37312;BME280;23197;53.912;9.138;2022-12-05T14:00:33;101861.84;;;9.23;69.60
37312;BME280;23197;53.912;9.138;2022-12-05T14:03:04;101860.03;;;9.25;70.07
37312;BME280;23197;53.912;9.138;2022-12-05T14:05:39;101858.31;;;9.24;69.82
37312;BME280;23197;53.912;9.138;2022-12-05T14:15:41;101863.53;;;9.24;70.16
37312;BME280;23197;53.912;9.138;2022-12-05T14:18:43;101855.72;;;9.24;69.91
37312;BME280;23197;53.912;9.138;2022-12-05T14:21:59;101862.59;;;9.27;69.68
37312;BME280;23197;53.912;9.138;2022-12-05T14:29:59;101865.97;;;9.29;69.80
37312;BME280;23197;53.912;9.138;2022-12-05T14:32:39;101863.44;;;9.28;69.50
37312;BME280;23197;53.912;9.138;2022-12-05T14:35:12;101867.66;;;9.30;69.92
37312;BME280;23197;53.912;9.138;2022-12-05T14:37:41;101856.38;;;9.30;69.52
37312;BME280;23197;53.912;9.138;2022-12-05T14:40:36;101865.22;;;9.25;69.86
37312;BME280;23197;53.912;9.138;2022-12-05T14:43:31;101860.94;;;9.24;69.62
37312;BME280;23197;53.912;9.138;2022-12-05T14:46:00;101855.78;;;9.23;69.86
37312;BME280;23197;53.912;9.138;2022-12-05T14:48:35;101864.53;;;9.22;69.68
37312;BME280;23197;53.912;9.138;2022-12-05T14:51:43;101864.72;;;9.17;69.82
37312;BME280;23197;53.912;9.138;2022-12-05T14:54:18;101864.19;;;9.09;69.62
37312;BME280;23197;53.912;9.138;2022-12-05T14:59:27;101865.03;;;9.10;70.25
37312;BME280;23197;53.912;9.138;2022-12-05T15:01:58;101872.84;;;9.10;69.80
37312;BME280;23197;53.912;9.138;2022-12-05T15:04:46;101865.94;;;9.09;69.80
37312;BME280;23197;53.912;9.138;2022-12-05T15:07:35;101872.94;;;9.08;69.78
37312;BME280;23197;53.912;9.138;2022-12-05T15:12:46;101876.50;;;9.06;70.15
37312;BME280;23197;53.912;9.138;2022-12-05T15:15:18;101864.19;;;9.09;69.65
37312;BME280;23197;53.912;9.138;2022-12-05T15:17:52;101876.31;;;9.10;69.81
37312;BME280;23197;53.912;9.138;2022-12-05T15:20:28;101876.31;;;9.10;69.73
37312;BME280;23197;53.912;9.138;2022-12-05T15:22:57;101872.78;;;9.11;69.63
37312;BME280;23197;53.912;9.138;2022-12-05T15:25:26;101865.94;;;9.09;69.60
37312;BME280;23197;53.912;9.138;2022-12-05T15:30:25;101877.34;;;9.06;69.83
37312;BME280;23197;53.912;9.138;2022-12-05T15:32:51;101879.94;;;9.06;70.03
37312;BME280;23197;53.912;9.138;2022-12-05T15:35:18;101868.66;;;9.06;69.89
37312;BME280;23197;53.912;9.138;2022-12-05T15:40:25;101873.03;;;9.05;70.03
37312;BME280;23197;53.912;9.138;2022-12-05T15:43:01;101879.94;;;9.06;69.68
37312;BME280;23197;53.912;9.138;2022-12-05T15:45:43;101879.00;;;9.09;69.67
37312;BME280;23197;53.912;9.138;2022-12-05T15:50:48;101873.03;;;9.05;69.54
37312;BME280;23197;53.912;9.138;2022-12-05T15:53:34;101876.63;;;9.03;69.31
37312;BME280;23197;53.912;9.138;2022-12-05T15:58:41;101872.75;;;8.91;69.72